Kezdőlap
METAR-TAF:

METAR-TAF

Repülőterek :

Rundu, Namíbia

földrajzi szélesség: 17-57-20S, földrajzi hosszúság: 019-43-25E, magasság: 1106 m

METAR: hiányzik

Idő: 15:59 (13:59 UTC)

Előrejelzés

A jelentés 5 órával és 59 perccel ezelõtt készült, 08:00 UTC
Az előrejelzés 24-én 09 óra UTC és 24-én 18 óra UTC között érvényes
Kelet-északkeleti szél 8 kt
Látótávolság 10 km, vagy több
Szórványos felhőzet 3500 lábon
24-én 11 óra UTC és 24-én 16 óra UTC között ideiglenes
Északi szél 7 kt
Szórványos felhőzet 3000 lábon, Cumulonimbus.
zivatar, enyhe esõ

TAF: FYRU 240800Z 2409/2418 07008KT 9999 SCT035 TEMPO 2411/2416 36007KT -TSRA SCT030CB

Meteorológiai megfigyelések és előrejelzések több, mint 4000 repülőtéren (METAR és TAF jelentéseket).

A térképen piros és sárga pontok jelzik az elérhető meteorológiai állomásokat.

Mozgassa az egeret a pont fölött, hogy megjelenjen az állomás neve.

Azután kattintson az időjárási megfigyelések és előrejelzések megtekintéséhez.

A térkép megváltoztatása: kattintson a fekete keresztel jelölt zöld gombra ráközelítéshez, a vonallal jelölt zöld gombra távolításhoz, vagy a zöld nyilakra a szomszédos térképek eléréséhez.


METAR-TAF: